Terminal Aerodrome Forecast
Issued by NWS

Home | Current Version | Previous Version | Text Only | Print | Product List | Glossary On
Versions: 1 2 3 4 5 6 7 8 9 10 11 12
000
FTUS45 KGJT 271733
TAFASE
TAF
KASE 271733Z 2718/2818 VRB05KT P6SM SKC
     FM271900 29008G16KT P6SM FEW100
     FM280200 25005KT P6SM FEW140
     FM281400 VRB03KT P6SM FEW200
     FM281700 31006KT P6SM FEW100 SCT150=

USA.gov is the U.S. government's official web portal to all federal, state and local government web resources and services.